Time;durP1;ratioP1;P1;durP2;ratioP2;P2;SDS_P1;SDS_P2;PMS_P1;PMS_P2;Temp;Humidity;BMP_temperature;BMP_pressure;BME280_temperature;BME280_humidity;BME280_pressure;Samples;Min_cycle;Max_cycle;Signal;HPM_P1;HPM_P2
2021/07/01 00:00:49;;;;;;;8.00;6.03;;;;;;;18.30;74.55;96601.05;1739926;81;25703;-82
2021/07/01 00:03:17;;;;;;;6.97;6.33;;;;;;;18.31;74.63;96591.22;1772154;80;25689;-82
2021/07/01 00:05:44;;;;;;;8.23;5.80;;;;;;;18.33;74.72;96594.49;1728793;81;27602;-82
2021/07/01 00:08:11;;;;;;;9.98;5.92;;;;;;;18.34;74.72;96595.31;1734858;81;25741;-83
2021/07/01 00:10:38;;;;;;;9.13;5.70;;;;;;;18.34;74.73;96595.31;1771540;80;25842;-82
2021/07/01 00:13:05;;;;;;;14.78;7.28;;;;;;;18.31;74.80;96592.59;1785976;80;25843;-81
2021/07/01 00:15:34;;;;;;;8.48;7.78;;;;;;;18.25;74.85;96588.77;1788747;80;25709;-82
2021/07/01 00:18:02;;;;;;;8.43;7.62;;;;;;;18.23;75.10;96589.05;1788044;80;27582;-82
2021/07/01 00:20:29;;;;;;;10.65;8.00;;;;;;;18.25;75.12;96592.33;1788462;80;25708;-82
2021/07/01 00:22:56;;;;;;;8.90;7.08;;;;;;;18.26;75.13;96587.13;1782418;80;25715;-82
2021/07/01 00:25:23;;;;;;;16.40;7.17;;;;;;;18.25;75.13;96588.22;1787587;80;25707;-82
2021/07/01 00:27:51;;;;;;;6.95;5.95;;;;;;;18.26;75.15;96588.50;1782179;80;25753;-82
2021/07/01 00:30:20;;;;;;;7.62;5.50;;;;;;;18.25;75.08;96588.77;1789023;79;27466;-82
2021/07/01 00:32:46;;;;;;;9.23;6.55;;;;;;;18.23;75.09;96590.41;1774704;79;25271;-82
2021/07/01 00:35:13;;;;;;;8.88;6.28;;;;;;;18.24;75.13;96586.59;1789507;80;25751;-83
2021/07/01 00:37:40;;;;;;;10.90;8.23;;;;;;;18.27;75.09;96586.58;1788742;80;26391;-82
2021/07/01 00:40:10;;;;;;;11.45;8.10;;;;;;;18.26;75.08;96584.40;1789584;79;25867;-83
2021/07/01 00:42:37;;;;;;;11.60;8.35;;;;;;;18.26;75.12;96577.57;1787440;80;27541;-83
2021/07/01 00:45:09;;;;;;;7.08;6.03;;;;;;;18.25;75.14;96584.67;1789169;80;25767;-83
2021/07/01 00:47:37;;;;;;;6.42;5.83;;;;;;;18.19;75.05;96583.90;1789827;79;25699;-83
2021/07/01 00:50:08;;;;;;;8.85;5.85;;;;;;;18.15;74.91;96584.17;1767430;80;26300;-82
2021/07/01 00:52:35;;;;;;;8.88;6.03;;;;;;;17.99;74.82;96579.89;1736814;81;25803;-83
2021/07/01 00:55:03;;;;;;;5.83;5.33;;;;;;;17.90;74.95;96586.98;1746626;81;27538;-83
2021/07/01 00:57:31;;;;;;;7.83;5.90;;;;;;;17.89;75.02;96588.08;1759211;80;25753;-83
2021/07/01 00:59:58;;;;;;;7.87;6.15;;;;;;;17.88;75.11;96591.91;1775553;80;25701;-83
2021/07/01 01:02:24;;;;;;;11.68;6.60;;;;;;;17.89;75.22;96593.55;1789521;80;25751;-82
2021/07/01 01:04:51;;;;;;;6.75;6.15;;;;;;;17.91;75.24;96591.36;1774394;79;25644;-83
2021/07/01 01:07:18;;;;;;;9.08;6.58;;;;;;;17.92;75.24;96592.45;1753815;81;27472;-83
2021/07/01 01:09:45;;;;;;;8.83;6.60;;;;;;;17.91;75.16;96591.36;1758907;81;26208;-83
2021/07/01 01:12:12;;;;;;;8.90;6.33;;;;;;;17.86;75.22;96584.02;1749619;81;25836;-83
2021/07/01 01:14:38;;;;;;;7.72;6.95;;;;;;;17.86;75.26;96585.93;1734339;81;26192;-82
2021/07/01 01:17:05;;;;;;;8.23;7.20;;;;;;;17.85;75.27;96582.93;1770428;80;25756;-82
2021/07/01 01:19:32;;;;;;;7.45;6.75;;;;;;;17.87;75.38;96584.84;1789198;80;27342;-82
2021/07/01 01:21:58;;;;;;;8.18;6.83;;;;;;;17.87;75.40;96571.98;1788019;79;26545;-83
2021/07/01 01:24:25;;;;;;;8.58;6.65;;;;;;;17.87;75.36;96573.92;1786925;80;25836;-83
2021/07/01 01:26:51;;;;;;;7.72;6.17;;;;;;;17.86;75.37;96573.10;1773498;80;26017;-83
2021/07/01 01:29:21;;;;;;;10.75;6.92;;;;;;;17.85;75.42;96575.56;1764334;80;26466;-82
2021/07/01 01:31:48;;;;;;;7.45;6.65;;;;;;;17.86;75.42;96581.29;1786916;79;27364;-83
2021/07/01 01:34:16;;;;;;;8.48;5.75;;;;;;;17.86;75.41;96577.74;1786557;79;25781;-82
2021/07/01 01:36:43;;;;;;;10.15;6.22;;;;;;;17.82;75.42;96584.84;1744422;80;25769;-82
2021/07/01 01:39:09;;;;;;;7.42;6.62;;;;;;;17.78;75.54;96586.48;1745939;80;25690;-83
2021/07/01 01:41:36;;;;;;;9.63;6.60;;;;;;;17.77;75.59;96587.02;1752674;80;25731;-82
2021/07/01 01:44:03;;;;;;;7.58;6.08;;;;;;;17.72;75.55;96598.52;1786960;80;27576;-82
2021/07/01 01:46:35;;;;;;;10.08;6.58;;;;;;;17.69;75.68;96590.88;1771134;79;25714;-82
2021/07/01 01:49:01;;;;;;;6.58;5.97;;;;;;;17.66;75.82;96592.78;1770878;79;32477;-83
2021/07/01 01:51:28;;;;;;;7.85;6.83;;;;;;;17.65;75.96;96598.78;1777012;78;26425;-83
2021/07/01 01:53:55;;;;;;;10.75;7.97;;;;;;;17.65;76.06;96593.33;1782109;79;25904;-83
2021/07/01 01:56:21;;;;;;;15.65;8.38;;;;;;;17.62;76.08;96596.05;1774655;78;27663;-83
2021/07/01 01:58:49;;;;;;;11.90;9.35;;;;;;;17.64;76.24;96603.42;1781220;79;25911;-83
2021/07/01 02:01:15;;;;;;;13.68;10.48;;;;;;;17.67;76.31;96606.70;1746810;80;26254;-83
2021/07/01 02:03:42;;;;;;;17.95;11.93;;;;;;;17.66;76.33;96602.33;1786922;78;26277;-83
2021/07/01 02:06:09;;;;;;;14.95;11.25;;;;;;;17.66;76.35;96601.78;1786741;80;25727;-83
2021/07/01 02:08:35;;;;;;;14.80;11.95;;;;;;;17.69;76.34;96599.06;1776665;79;27372;-83
2021/07/01 02:11:04;;;;;;;17.45;11.95;;;;;;;17.68;76.40;96602.33;1782868;78;26427;-83
2021/07/01 02:13:30;;;;;;;17.00;11.35;;;;;;;17.70;76.50;96603.42;1778490;78;25783;-83
2021/07/01 02:15:57;;;;;;;15.18;11.45;;;;;;;17.72;76.49;96601.25;1762577;80;25959;-84
2021/07/01 02:18:23;;;;;;;13.10;10.70;;;;;;;17.73;76.43;96597.42;1782558;80;25813;-83
2021/07/01 02:20:50;;;;;;;15.83;11.75;;;;;;;17.75;76.38;96595.24;1782527;79;28293;-83
2021/07/01 02:23:16;;;;;;;15.18;11.85;;;;;;;17.77;76.41;96599.85;1779345;80;25751;-83
2021/07/01 02:25:43;;;;;;;14.73;11.18;;;;;;;17.75;76.49;96600.13;1785503;79;25697;-83
2021/07/01 02:28:10;;;;;;;11.38;10.13;;;;;;;17.71;76.48;96598.24;1774624;79;25774;-83
2021/07/01 02:30:36;;;;;;;15.95;10.68;;;;;;;17.73;76.55;96604.25;1755829;80;25777;-84
2021/07/01 02:33:03;;;;;;;15.25;10.38;;;;;;;17.76;76.49;96599.58;1755909;81;27429;-85
2021/07/01 02:35:30;;;;;;;16.25;10.50;;;;;;;17.81;76.42;96603.67;1732238;81;25792;-83
2021/07/01 02:37:56;;;;;;;10.98;9.85;;;;;;;17.87;76.34;96595.76;1786912;80;25729;-84
2021/07/01 02:40:23;;;;;;;11.83;10.63;;;;;;;17.87;76.25;96591.66;1787295;79;25737;-84
2021/07/01 02:42:50;;;;;;;11.33;9.78;;;;;;;17.86;76.26;96594.13;1781012;79;25974;-83
2021/07/01 02:45:16;;;;;;;13.95;9.03;;;;;;;17.86;76.21;96597.67;1786815;79;28238;-84
2021/07/01 02:47:43;;;;;;;9.80;8.80;;;;;;;17.88;76.21;96602.83;1775125;79;25799;-82
2021/07/01 02:50:11;;;;;;;8.78;7.92;;;;;;;17.89;76.16;96606.65;1763616;80;25814;-81
2021/07/01 02:52:38;;;;;;;9.03;8.00;;;;;;;17.90;76.11;96612.38;1780819;80;25712;-83
2021/07/01 02:55:09;;;;;;;10.25;8.03;;;;;;;17.92;76.06;96613.47;1762894;79;25696;-81
2021/07/01 02:57:36;;;;;;;9.68;8.43;;;;;;;17.91;76.13;96626.30;1767408;80;27501;-82
2021/07/01 03:00:07;;;;;;;13.10;9.48;;;;;;;17.87;76.15;96618.97;1768456;79;26182;-82
2021/07/01 03:02:34;;;;;;;12.50;9.33;;;;;;;17.84;76.21;96619.51;1764976;80;25750;-82
2021/07/01 03:05:00;;;;;;;13.20;9.60;;;;;;;17.82;76.27;96614.87;1787337;80;26355;-82
2021/07/01 03:07:27;;;;;;;10.40;9.30;;;;;;;17.80;76.30;96606.13;1787195;80;25816;-82
2021/07/01 03:09:54;;;;;;;14.95;10.10;;;;;;;17.82;76.26;96599.30;1765143;80;27213;-82
2021/07/01 03:12:21;;;;;;;12.05;10.23;;;;;;;17.82;76.27;96595.76;1787018;80;25843;-81
2021/07/01 03:14:47;;;;;;;11.93;10.25;;;;;;;17.81;76.29;96588.66;1787090;79;25729;-81
2021/07/01 03:17:14;;;;;;;12.98;9.83;;;;;;;17.77;76.30;96588.94;1787165;80;26591;-81
2021/07/01 03:19:40;;;;;;;12.25;9.38;;;;;;;17.70;76.36;96595.23;1787185;80;25768;-82
2021/07/01 03:22:07;;;;;;;12.37;10.05;;;;;;;17.64;76.47;96600.69;1780022;80;28171;-85
2021/07/01 03:24:34;;;;;;;9.88;8.80;;;;;;;17.64;76.63;96605.33;1786969;79;25865;-83
2021/07/01 03:27:00;;;;;;;12.37;9.35;;;;;;;17.62;76.54;96613.80;1787087;79;25664;-82
2021/07/01 03:29:28;;;;;;;10.38;8.78;;;;;;;17.64;76.61;96618.98;1787133;80;25735;-82
2021/07/01 03:31:54;;;;;;;9.63;8.63;;;;;;;17.63;76.68;96622.25;1759395;81;26396;-82
2021/07/01 03:34:21;;;;;;;9.53;7.78;;;;;;;17.60;76.63;96618.70;1778074;80;27392;-84
2021/07/01 03:36:48;;;;;;;10.53;8.40;;;;;;;17.57;76.70;96616.52;1782677;79;25801;-82
2021/07/01 03:39:14;;;;;;;9.78;7.75;;;;;;;17.57;76.74;96620.61;1787123;79;25710;-82
2021/07/01 03:41:41;;;;;;;7.75;6.97;;;;;;;17.61;76.79;96619.52;1787116;79;26267;-81
2021/07/01 03:44:09;;;;;;;9.18;8.03;;;;;;;17.61;76.71;96613.52;1787127;80;25736;-81
2021/07/01 03:46:41;;;;;;;7.97;7.17;;;;;;;17.62;76.72;96611.06;1787145;80;27400;-81
2021/07/01 03:49:05;;;;;;;9.65;7.28;;;;;;;17.58;76.75;96609.15;1785001;79;25792;-81
2021/07/01 03:51:31;;;;;;;8.68;7.78;;;;;;;17.57;76.90;96612.97;1787189;79;25701;-81
2021/07/01 03:53:58;;;;;;;9.18;7.75;;;;;;;17.53;76.98;96607.23;1786890;79;25798;-82
2021/07/01 03:56:25;;;;;;;8.43;7.42;;;;;;;17.49;77.11;96606.70;1765039;79;25685;-81
2021/07/01 03:58:51;;;;;;;8.60;7.80;;;;;;;17.52;77.24;96608.32;1777782;80;26954;-81
2021/07/01 04:01:18;;;;;;;8.70;7.80;;;;;;;17.55;77.25;96613.23;1765353;80;25752;-81
2021/07/01 04:03:44;;;;;;;9.78;7.47;;;;;;;17.56;77.25;96603.96;1783899;80;26009;-81
2021/07/01 04:06:14;;;;;;;7.33;6.55;;;;;;;17.57;77.21;96596.05;1780416;80;26272;-82
2021/07/01 04:08:41;;;;;;;8.90;7.70;;;;;;;17.59;77.21;96597.14;1777951;79;25785;-82
2021/07/01 04:11:10;;;;;;;8.75;7.75;;;;;;;17.60;77.30;96596.88;1728346;81;27584;-82
2021/07/01 04:13:36;;;;;;;8.95;7.87;;;;;;;17.56;77.35;96603.14;1760073;81;26228;-82
2021/07/01 04:16:02;;;;;;;8.80;7.90;;;;;;;17.53;77.39;96603.14;1761423;81;25458;-82
2021/07/01 04:18:29;;;;;;;8.58;7.70;;;;;;;17.55;77.56;96598.77;1765936;80;25700;-82
2021/07/01 04:20:56;;;;;;;11.25;8.03;;;;;;;17.57;77.56;96597.41;1768081;80;25869;-81
2021/07/01 04:23:22;;;;;;;9.10;7.80;;;;;;;17.59;77.56;96600.69;1758438;81;27587;-82
2021/07/01 04:25:50;;;;;;;8.70;7.90;;;;;;;17.66;77.50;96600.97;1755381;81;25725;-81
2021/07/01 04:28:17;;;;;;;8.85;7.87;;;;;;;17.70;77.45;96602.88;1737359;81;25804;-81
2021/07/01 04:30:44;;;;;;;9.58;8.20;;;;;;;17.75;77.39;96611.62;1763558;79;25829;-81
2021/07/01 04:33:10;;;;;;;9.15;8.23;;;;;;;17.78;77.30;96609.68;1759743;81;25903;-80
2021/07/01 04:35:37;;;;;;;12.05;8.65;;;;;;;17.80;77.26;96600.13;1759084;81;27497;-81
2021/07/01 04:38:04;;;;;;;9.68;8.68;;;;;;;17.78;77.25;96593.30;1761747;81;25747;-81
2021/07/01 04:40:30;;;;;;;9.83;8.25;;;;;;;17.76;77.30;96592.21;1756453;81;25759;-82
2021/07/01 04:42:57;;;;;;;9.13;8.20;;;;;;;17.77;77.50;96597.94;1767899;81;25759;-82
2021/07/01 04:45:24;;;;;;;11.73;8.88;;;;;;;17.76;77.56;96600.40;1758734;81;25346;-81
2021/07/01 04:47:50;;;;;;;11.00;9.08;;;;;;;17.77;77.59;96611.59;1753308;81;27396;-82
2021/07/01 04:50:17;;;;;;;12.13;8.95;;;;;;;17.77;77.58;96614.86;1749914;81;26488;-82
2021/07/01 04:52:44;;;;;;;14.28;9.50;;;;;;;17.74;77.64;96615.44;1767727;81;25795;-82
2021/07/01 04:55:11;;;;;;;10.95;9.85;;;;;;;17.74;77.74;96623.08;1759503;81;25803;-82
2021/07/01 04:57:37;;;;;;;12.73;9.50;;;;;;;17.73;77.79;96624.72;1768031;81;25796;-81
2021/07/01 05:00:05;;;;;;;13.28;10.10;;;;;;;17.75;77.83;96632.09;1759395;81;28286;-82
2021/07/01 05:02:32;;;;;;;11.78;9.85;;;;;;;17.75;77.84;96630.73;1747171;81;25757;-82
2021/07/01 05:04:58;;;;;;;8.30;7.30;;;;;;;17.75;77.89;96640.28;1764026;81;26435;-83
2021/07/01 05:07:25;;;;;;;9.95;8.05;;;;;;;17.71;77.78;96640.00;1753967;81;25827;-82
2021/07/01 05:09:52;;;;;;;10.80;7.15;;;;;;;17.70;77.63;96641.64;1765213;81;26101;-82
2021/07/01 05:12:18;;;;;;;9.25;7.53;;;;;;;17.70;77.71;96641.64;1767968;81;28306;-82
2021/07/01 05:14:45;;;;;;;9.98;7.53;;;;;;;17.71;77.71;96636.45;1758385;81;26425;-82
2021/07/01 05:17:11;;;;;;;10.18;8.33;;;;;;;17.71;77.81;96633.72;1787253;80;25785;-82
2021/07/01 05:19:38;;;;;;;10.60;8.38;;;;;;;17.72;77.83;96631.27;1750011;81;25758;-82
2021/07/01 05:22:04;;;;;;;8.98;7.65;;;;;;;17.75;77.86;96634.82;1755832;81;25868;-82
2021/07/01 05:24:31;;;;;;;8.60;7.47;;;;;;;17.78;77.77;96636.43;1785952;80;28409;-82
2021/07/01 05:26:58;;;;;;;9.88;7.45;;;;;;;17.79;77.87;96642.70;1786136;80;25715;-82
2021/07/01 05:29:24;;;;;;;9.48;7.75;;;;;;;17.77;77.81;96647.63;1786568;80;25657;-82
2021/07/01 05:31:51;;;;;;;9.43;7.25;;;;;;;17.76;77.91;96643.25;1786476;80;25592;-82
2021/07/01 05:34:17;;;;;;;11.25;7.87;;;;;;;17.78;77.90;96646.53;1775917;78;25705;-82
2021/07/01 05:36:44;;;;;;;10.23;8.05;;;;;;;17.78;77.98;96647.89;1781222;78;27489;-82
2021/07/01 05:39:11;;;;;;;8.58;7.72;;;;;;;17.81;78.05;96656.36;1786905;78;26335;-82
2021/07/01 05:41:38;;;;;;;8.18;7.35;;;;;;;17.82;78.00;96647.08;1782737;78;26379;-82
2021/07/01 05:44:05;;;;;;;8.65;7.65;;;;;;;17.83;78.01;96651.45;1785704;79;25776;-82
2021/07/01 05:46:31;;;;;;;8.73;7.87;;;;;;;17.85;78.08;96653.36;1787222;78;26284;-82
2021/07/01 05:48:58;;;;;;;10.18;8.70;;;;;;;17.88;78.08;96654.16;1765630;80;27185;-82
2021/07/01 05:51:27;;;;;;;10.63;8.95;;;;;;;17.91;78.16;96648.70;1776048;78;25899;-82
2021/07/01 05:54:55;;;;;;;10.63;8.35;;;;;;;17.92;78.14;96649.78;1782320;78;25754;-83
2021/07/01 05:56:36;;;;;;;12.28;7.85;;;;;;;17.93;78.05;96656.06;1730470;78;25672;-82
2021/07/01 05:58:59;;;;;;;16.17;7.47;;;;;;;17.94;78.03;96654.42;1778640;79;25730;-82
2021/07/01 06:01:25;;;;;;;8.95;7.30;;;;;;;17.94;77.84;96650.88;1785650;79;27335;-82
2021/07/01 06:03:52;;;;;;;10.82;7.78;;;;;;;17.94;77.85;96645.42;1783143;78;25914;-82
2021/07/01 06:06:19;;;;;;;8.25;7.45;;;;;;;17.95;77.86;96647.06;1779384;78;25721;-82
2021/07/01 06:08:50;;;;;;;10.43;7.75;;;;;;;17.97;77.89;96647.60;1786563;80;26478;-82
2021/07/01 06:11:17;;;;;;;10.53;9.05;;;;;;;17.99;77.87;96650.88;1780017;78;25767;-82
2021/07/01 06:13:44;;;;;;;11.20;8.35;;;;;;;18.04;77.83;96645.39;1783947;78;27590;-82
2021/07/01 06:16:13;;;;;;;12.07;8.20;;;;;;;18.08;77.63;96637.47;1771286;79;25307;-82
2021/07/01 06:18:42;;;;;;;8.73;7.85;;;;;;;18.12;77.42;96636.61;1782480;78;25623;-82
2021/07/01 06:21:09;;;;;;;9.30;6.72;;;;;;;18.19;77.28;96643.17;1783294;79;25848;-82
2021/07/01 06:23:40;;;;;;;9.88;7.75;;;;;;;18.22;77.20;96650.27;1772557;79;25707;-83
2021/07/01 06:26:08;;;;;;;10.20;7.40;;;;;;;18.23;77.19;96651.88;1751360;81;28256;-83
2021/07/01 06:28:41;;;;;;;6.95;5.97;;;;;;;18.24;77.22;96654.87;1752187;81;26002;-83
2021/07/01 06:31:10;;;;;;;6.20;5.50;;;;;;;18.23;77.06;96654.61;1741687;81;25806;-83
2021/07/01 06:33:41;;;;;;;6.58;5.78;;;;;;;18.24;77.07;96657.61;1732806;81;25854;-84
2021/07/01 06:36:08;;;;;;;6.67;5.10;;;;;;;18.25;76.99;96645.59;1740926;81;26479;-83
2021/07/01 06:38:37;;;;;;;10.05;5.97;;;;;;;18.27;77.09;96647.50;1752451;80;27373;-83
2021/07/01 06:41:09;;;;;;;9.03;5.33;;;;;;;18.26;77.32;96654.61;1726607;81;25744;-84
2021/07/01 06:43:36;;;;;;;7.50;4.77;;;;;;;18.27;77.11;96653.52;1729703;81;25733;-83
2021/07/01 06:46:06;;;;;;;6.25;5.00;;;;;;;18.10;77.15;96625.17;1743741;81;25796;-83
2021/07/01 06:48:34;;;;;;;6.47;4.70;;;;;;;18.29;77.06;96652.14;1736601;81;25741;-83
2021/07/01 06:51:01;;;;;;;8.55;5.20;;;;;;;18.31;76.93;96652.69;1743308;81;27323;-83
2021/07/01 06:53:28;;;;;;;6.58;5.53;;;;;;;18.32;76.75;96652.96;1733913;81;25705;-83
2021/07/01 06:55:55;;;;;;;7.47;5.30;;;;;;;18.34;76.61;96657.61;1752408;81;25728;-83
2021/07/01 06:58:22;;;;;;;7.53;5.20;;;;;;;18.36;76.50;96656.75;1745640;81;26519;-84
2021/07/01 07:00:50;;;;;;;6.62;4.60;;;;;;;18.40;76.69;96658.93;1725081;81;25730;-84
2021/07/01 07:03:18;;;;;;;5.80;5.17;;;;;;;18.42;76.70;96662.20;1748731;81;27361;-84
2021/07/01 07:05:51;;;;;;;5.80;5.30;;;;;;;18.46;76.73;96660.56;1738898;81;25739;-84
2021/07/01 07:08:19;;;;;;;7.70;5.20;;;;;;;18.50;76.73;96666.54;1747837;81;26264;-84
2021/07/01 07:10:46;;;;;;;5.72;5.08;;;;;;;18.55;76.57;96664.34;1739971;81;25841;-84
2021/07/01 07:13:13;;;;;;;6.65;4.95;;;;;;;18.60;76.35;96665.70;1726414;81;25960;-84
2021/07/01 07:15:43;;;;;;;7.62;6.28;;;;;;;18.62;76.03;96667.61;1752291;81;27619;-84
2021/07/01 07:18:30;;;;;;;9.05;6.22;;;;;;;18.66;75.78;96675.53;1733302;81;25744;-84
2021/07/01 07:21:19;;;;;;;5.97;5.25;;;;;;;18.70;75.73;96676.62;1723523;81;25802;-85
2021/07/01 07:23:55;;;;;;;5.60;4.62;;;;;;;18.70;75.73;96678.80;1741059;79;25756;-84
2021/07/01 07:26:25;;;;;;;9.40;5.25;;;;;;;18.78;75.36;96677.39;1785011;79;25743;-84
2021/07/01 07:28:54;;;;;;;8.25;5.85;;;;;;;18.85;75.13;96675.15;1765654;79;27625;-85
2021/07/01 07:31:29;;;;;;;7.37;6.58;;;;;;;18.85;75.35;96677.88;1784809;79;25791;-85
2021/07/01 07:33:59;;;;;;;6.65;5.92;;;;;;;18.85;75.52;96671.59;1780699;79;25254;-85
2021/07/01 07:36:27;;;;;;;9.50;5.22;;;;;;;18.82;75.33;96679.02;1784809;79;26045;-84
2021/07/01 07:38:55;;;;;;;6.87;5.40;;;;;;;18.78;75.25;96671.92;1789777;79;25782;-84
2021/07/01 07:41:24;;;;;;;9.85;5.78;;;;;;;18.79;75.43;96676.29;1785212;79;28355;-84
2021/07/01 07:43:51;;;;;;;7.40;5.65;;;;;;;18.80;75.32;96666.99;1786668;79;25755;-84
2021/07/01 07:46:20;;;;;;;9.43;5.45;;;;;;;18.83;75.49;96674.64;1779538;79;25695;-84
2021/07/01 07:48:47;;;;;;;7.78;5.22;;;;;;;18.85;75.52;96673.78;1786298;79;25781;-84
2021/07/01 07:51:17;;;;;;;11.20;5.55;;;;;;;18.88;75.29;96671.86;1781470;79;25267;-84
2021/07/01 07:53:54;;;;;;;10.35;6.08;;;;;;;18.92;75.01;96674.31;1783793;79;28228;-84
2021/07/01 07:56:36;;;;;;;7.67;6.00;;;;;;;18.92;75.30;96666.66;1789279;80;25843;-84
2021/07/01 07:58:56;;;;;;;6.97;6.20;;;;;;;18.96;75.35;96663.05;1786790;79;25683;-84
2021/07/01 08:01:23;;;;;;;6.80;6.10;;;;;;;19.05;75.44;96660.02;1788175;79;25899;-84
2021/07/01 08:03:54;;;;;;;8.20;6.55;;;;;;;19.15;75.16;96658.30;1771071;79;25749;-84
2021/07/01 08:06:23;;;;;;;8.30;6.35;;;;;;;19.20;75.17;96661.02;1784016;79;27472;-83
2021/07/01 08:08:53;;;;;;;7.90;5.90;;;;;;;19.27;74.98;96665.05;1786809;78;25664;-84
2021/07/01 08:11:23;;;;;;;6.72;6.00;;;;;;;19.32;74.62;96657.38;1788177;79;26143;-84
2021/07/01 08:13:55;;;;;;;8.25;6.53;;;;;;;19.35;74.59;96661.70;1783802;79;25771;-84
2021/07/01 08:16:25;;;;;;;9.18;7.20;;;;;;;19.33;74.61;96653.50;1768532;78;25779;-84
2021/07/01 08:18:52;;;;;;;6.72;5.97;;;;;;;19.34;74.64;96657.88;1770623;79;27543;-84
2021/07/01 08:21:20;;;;;;;9.33;6.35;;;;;;;19.36;74.61;96658.41;1788043;79;25734;-84
2021/07/01 08:23:47;;;;;;;9.48;6.37;;;;;;;19.35;74.40;96658.15;1779371;79;25844;-84
2021/07/01 08:26:14;;;;;;;8.68;5.85;;;;;;;19.41;74.04;96655.66;1739523;81;26890;-84
2021/07/01 08:28:41;;;;;;;7.90;6.15;;;;;;;19.45;73.90;96655.33;1741675;81;25709;-84
2021/07/01 08:31:11;;;;;;;9.95;6.72;;;;;;;19.47;74.12;96653.13;1749841;81;27090;-84
2021/07/01 08:33:41;;;;;;;6.80;6.10;;;;;;;19.45;74.02;96648.48;1748441;81;25757;-84
2021/07/01 08:36:16;;;;;;;8.30;6.53;;;;;;;19.49;73.94;96652.33;1746076;81;25729;-84
2021/07/01 08:38:43;;;;;;;8.38;6.80;;;;;;;19.55;74.03;96651.20;1730084;81;25878;-84
2021/07/01 08:41:20;;;;;;;6.10;5.50;;;;;;;19.64;74.16;96661.78;1750434;81;25796;-84
2021/07/01 08:43:56;;;;;;;6.92;6.12;;;;;;;19.67;73.63;96661.77;1742493;81;27524;-84
2021/07/01 08:46:48;;;;;;;8.30;6.37;;;;;;;19.64;73.45;96656.86;1747260;81;25745;-84
2021/07/01 08:49:20;;;;;;;7.67;6.90;;;;;;;19.65;73.72;96652.47;1722802;81;26144;-83
2021/07/01 08:51:49;;;;;;;7.75;6.33;;;;;;;19.74;73.68;96656.22;1720874;81;25788;-83
2021/07/01 08:54:34;;;;;;;7.80;6.37;;;;;;;19.80;73.61;96654.27;1744683;81;25853;-86
2021/07/01 08:57:04;;;;;;;5.87;5.28;;;;;;;19.84;73.55;96649.82;1750839;81;28068;-83
2021/07/01 08:59:42;;;;;;;6.08;5.40;;;;;;;19.90;73.15;96642.38;1729822;81;25749;-83
2021/07/01 09:02:11;;;;;;;5.92;5.20;;;;;;;19.90;73.00;96636.91;1735353;81;25757;-83
2021/07/01 09:04:57;;;;;;;7.55;5.85;;;;;;;19.87;72.40;96632.81;1755293;81;27056;-83
2021/07/01 09:07:25;;;;;;;6.28;5.53;;;;;;;19.81;72.65;96635.88;1750815;80;26145;-83
2021/07/01 09:10:01;;;;;;;8.20;6.33;;;;;;;19.82;73.00;96636.96;1731567;81;27596;-83
2021/07/01 09:12:29;;;;;;;5.70;5.00;;;;;;;19.83;72.99;96635.05;1738476;81;25781;-82
2021/07/01 09:15:06;;;;;;;5.85;4.65;;;;;;;19.74;72.60;96641.16;1731858;81;25911;-85
2021/07/01 09:17:35;;;;;;;5.28;4.40;;;;;;;19.80;72.53;96650.16;1724985;81;26604;-85
2021/07/01 09:20:08;;;;;;;6.12;5.00;;;;;;;19.87;72.28;96652.54;1725162;81;25732;-84
2021/07/01 09:22:36;;;;;;;6.10;5.50;;;;;;;19.93;72.14;96652.73;1719753;81;29048;-86
2021/07/01 09:25:04;;;;;;;7.83;5.42;;;;;;;19.94;72.00;96655.19;1754080;79;25791;-81
2021/07/01 09:27:32;;;;;;;6.75;5.92;;;;;;;19.93;71.94;96665.06;1771924;79;25716;-84
2021/07/01 09:30:01;;;;;;;8.35;6.00;;;;;;;19.90;72.20;96668.41;1741060;80;25919;-81
2021/07/01 09:32:29;;;;;;;6.30;5.70;;;;;;;19.89;72.25;96669.50;1753581;81;25618;-82
2021/07/01 09:34:56;;;;;;;6.00;5.40;;;;;;;19.88;72.36;96676.91;1786983;80;27624;-85
2021/07/01 09:37:25;;;;;;;7.08;5.10;;;;;;;19.80;72.14;96666.58;1761457;80;25704;-81
2021/07/01 09:39:52;;;;;;;6.12;4.85;;;;;;;19.75;72.12;96664.70;1774044;80;26470;-83
2021/07/01 09:42:20;;;;;;;7.03;4.50;;;;;;;19.75;72.21;96667.44;1781777;78;25860;-81
2021/07/01 09:44:48;;;;;;;7.40;4.67;;;;;;;19.81;72.05;96675.59;1779849;80;25756;-87
2021/07/01 09:47:16;;;;;;;5.70;4.55;;;;;;;19.86;71.99;96674.19;1777701;79;27369;-81
2021/07/01 09:49:44;;;;;;;7.75;5.03;;;;;;;19.92;71.79;96671.67;1783630;79;25804;-82
2021/07/01 09:52:15;;;;;;;6.85;4.40;;;;;;;19.98;71.72;96673.25;1776178;80;25686;-84
2021/07/01 09:54:48;;;;;;;7.05;4.83;;;;;;;19.99;71.82;96677.63;1778884;80;26345;-82
2021/07/01 09:57:26;;;;;;;6.35;5.72;;;;;;;19.95;71.96;96674.63;1780498;80;26426;-82
2021/07/01 10:00:07;;;;;;;5.85;4.87;;;;;;;19.89;72.08;96670.87;1726179;81;27656;-82
2021/07/01 10:02:34;;;;;;;5.67;4.55;;;;;;;19.90;72.40;96676.63;1748508;82;25740;-82
2021/07/01 10:05:01;;;;;;;8.43;5.00;;;;;;;19.93;72.38;96681.50;1737625;82;25741;-81
2021/07/01 10:07:27;;;;;;;8.33;5.08;;;;;;;19.93;72.28;96685.61;1741108;81;25741;-82
2021/07/01 10:09:57;;;;;;;5.20;4.42;;;;;;;20.03;72.06;96686.91;1754417;81;26391;-83
2021/07/01 10:12:28;;;;;;;8.08;4.30;;;;;;;20.07;71.97;96689.31;1749884;81;28450;-81
2021/07/01 10:14:58;;;;;;;6.53;4.30;;;;;;;20.07;71.89;96689.31;1745964;81;25798;-81
2021/07/01 10:17:26;;;;;;;10.35;5.28;;;;;;;20.18;71.88;96692.20;1744682;81;25824;-82
2021/07/01 10:20:10;;;;;;;5.95;4.72;;;;;;;20.25;71.66;96699.55;1761871;81;25839;-81
2021/07/01 10:22:40;;;;;;;6.35;4.97;;;;;;;20.33;71.40;96699.46;1757644;81;25657;-83
2021/07/01 10:25:09;;;;;;;5.65;5.05;;;;;;;20.30;71.54;96698.11;1745266;80;27531;-80
2021/07/01 10:27:40;;;;;;;6.83;5.30;;;;;;;20.35;71.62;96698.09;1762826;81;25818;-82
2021/07/01 10:30:24;;;;;;;7.37;5.70;;;;;;;20.43;71.27;96690.59;1746475;81;25792;-86
2021/07/01 10:32:54;;;;;;;6.87;5.55;;;;;;;20.53;71.12;96688.88;1758025;81;26359;-84
2021/07/01 10:35:31;;;;;;;6.47;5.87;;;;;;;20.62;71.06;96687.93;1755090;81;25667;-82
2021/07/01 10:38:08;;;;;;;8.50;6.10;;;;;;;20.65;71.12;96686.53;1766608;80;27460;-84
2021/07/01 10:40:38;;;;;;;6.78;5.35;;;;;;;20.62;71.07;96691.22;1758173;81;25796;-84
2021/07/01 10:43:07;;;;;;;6.33;5.37;;;;;;;20.65;70.80;96693.39;1764402;81;25787;-81
2021/07/01 10:45:35;;;;;;;6.95;5.55;;;;;;;20.69;70.65;96696.60;1755859;81;25828;-80
2021/07/01 10:48:16;;;;;;;7.65;6.35;;;;;;;20.80;70.80;96684.95;1754546;81;25840;-81
2021/07/01 10:50:45;;;;;;;6.43;5.83;;;;;;;20.91;70.54;96683.70;1783636;79;28914;-83
2021/07/01 10:53:43;;;;;;;6.85;4.97;;;;;;;20.83;70.33;96691.22;1784939;79;25752;-83
2021/07/01 10:56:28;;;;;;;7.80;4.58;;;;;;;20.79;70.22;96694.28;1786261;79;25677;-83
2021/07/01 10:58:56;;;;;;;7.03;5.28;;;;;;;20.58;69.47;96695.65;1782273;79;25800;-86
2021/07/01 11:01:26;;;;;;;6.40;4.42;;;;;;;20.40;69.20;96689.83;1761956;79;25455;-90
2021/07/01 11:04:15;;;;;;;6.60;4.53;;;;;;;20.29;69.56;96684.69;1768982;79;27596;-85
2021/07/01 11:06:45;;;;;;;5.53;4.55;;;;;;;20.24;69.59;96688.33;1784474;79;25787;-84
2021/07/01 11:09:14;;;;;;;7.33;4.22;;;;;;;20.24;69.83;96688.88;1769369;79;25750;-83
2021/07/01 11:11:42;;;;;;;7.87;4.42;;;;;;;20.41;70.42;96686.51;1758325;81;25850;-80
2021/07/01 11:14:14;;;;;;;6.90;4.22;;;;;;;20.79;70.65;96681.39;1780597;79;25743;-81
2021/07/01 11:16:44;;;;;;;6.50;4.30;;;;;;;21.15;70.61;96676.23;1779723;79;27414;-80
2021/07/01 11:19:15;;;;;;;5.37;4.87;;;;;;;21.60;70.25;96680.81;1786219;79;25933;-82
2021/07/01 11:21:49;;;;;;;5.08;4.22;;;;;;;21.89;69.77;96677.28;1784927;79;25925;-81
2021/07/01 11:24:21;;;;;;;4.75;4.10;;;;;;;22.22;69.77;96682.77;1787313;79;25746;-85
2021/07/01 11:26:52;;;;;;;4.70;4.30;;;;;;;22.46;68.72;96686.16;1785994;78;25682;-79
2021/07/01 11:29:43;;;;;;;7.17;4.15;;;;;;;22.39;68.25;96670.63;1771846;80;27606;-85
2021/07/01 11:32:26;;;;;;;4.50;4.03;;;;;;;22.43;67.48;96686.79;1782013;78;25703;-82
2021/07/01 11:34:56;;;;;;;5.70;4.33;;;;;;;22.55;67.34;96693.98;1701646;84;26543;-85
2021/07/01 11:37:38;;;;;;;8.93;4.85;;;;;;;22.74;67.10;96707.62;1717065;81;26229;-82
2021/07/01 11:40:18;;;;;;;5.28;4.78;;;;;;;22.74;67.10;96707.62;1717095;81;26367;-83